Time;durP1;ratioP1;P1;durP2;ratioP2;P2;SDS_P1;SDS_P2;PMS_P1;PMS_P2;Temp;Humidity;BMP_temperature;BMP_pressure;BME280_temperature;BME280_humidity;BME280_pressure;Samples;Min_cycle;Max_cycle;Signal;HPM_P1;HPM_P2
2022/06/08 00:00:18;;;;;;;6.50;3.10;;;21.70;57.50;;;;;;4908416;29;20549;-94
2022/06/08 00:02:52;;;;;;;3.80;2.43;;;21.80;57.40;;;;;;4871810;29;20587;-92
2022/06/08 00:05:23;;;;;;;4.00;2.73;;;21.80;57.20;;;;;;4903760;29;20479;-95
2022/06/08 00:07:52;;;;;;;3.10;2.77;;;21.80;57.10;;;;;;4855758;29;20449;-93
2022/06/08 00:10:22;;;;;;;3.47;2.93;;;21.80;56.90;;;;;;4885577;29;20468;-92
2022/06/08 00:12:53;;;;;;;2.77;2.57;;;21.80;56.70;;;;;;4904798;29;20511;-93
2022/06/08 00:15:20;;;;;;;3.60;3.00;;;21.80;56.80;;;;;;4858677;29;20460;-93
2022/06/08 00:17:47;;;;;;;3.33;3.07;;;21.80;56.60;;;;;;4876470;29;20820;-93
2022/06/08 00:20:15;;;;;;;4.73;3.33;;;21.70;56.60;;;;;;4889609;29;20455;-93
2022/06/08 00:22:43;;;;;;;4.10;3.10;;;21.80;56.20;;;;;;4886667;29;20476;-92
2022/06/08 00:25:13;;;;;;;3.40;3.03;;;21.70;56.20;;;;;;4871613;29;20477;-93
2022/06/08 00:27:40;;;;;;;5.30;3.57;;;21.70;56.10;;;;;;4862514;29;20443;-93
2022/06/08 00:30:32;;;;;;;3.43;3.10;;;21.70;56.50;;;;;;4860610;29;20855;-94
2022/06/08 00:33:01;;;;;;;5.33;3.77;;;21.60;56.50;;;;;;4876982;29;20464;-93
2022/06/08 00:35:28;;;;;;;4.00;3.50;;;21.60;57.00;;;;;;4874071;29;20457;-93
2022/06/08 00:37:55;;;;;;;7.10;3.60;;;21.60;56.80;;;;;;4875671;29;20461;-93
2022/06/08 00:40:29;;;;;;;5.80;3.73;;;21.70;56.60;;;;;;4869182;29;20464;-93
2022/06/08 00:43:02;;;;;;;3.70;3.30;;;21.60;56.40;;;;;;4878119;29;20473;-93
2022/06/08 00:45:30;;;;;;;3.97;3.67;;;21.60;56.40;;;;;;4858771;29;20525;-93
2022/06/08 00:47:59;;;;;;;3.73;3.43;;;21.60;56.90;;;;;;4865685;29;20514;-93
2022/06/08 00:50:30;;;;;;;6.60;3.43;;;21.60;57.10;;;;;;4870163;29;20459;-93
2022/06/08 00:52:59;;;;;;;5.40;3.87;;;21.50;57.10;;;;;;4867820;29;21014;-94
2022/06/08 00:55:31;;;;;;;3.93;3.53;;;21.60;57.30;;;;;;4874854;29;20452;-93
2022/06/08 00:58:02;;;;;;;3.90;3.50;;;21.60;57.50;;;;;;4874466;29;20859;-93
2022/06/08 01:00:31;;;;;;;4.50;4.00;;;21.60;57.50;;;;;;4886760;29;20455;-93
2022/06/08 01:02:59;;;;;;;3.90;3.40;;;21.60;57.50;;;;;;4879523;29;20503;-94
2022/06/08 01:05:39;;;;;;;3.93;3.57;;;21.60;57.40;;;;;;4873437;29;20472;-93
2022/06/08 01:08:20;;;;;;;4.33;3.33;;;21.50;57.90;;;;;;4880638;29;20456;-93
2022/06/08 01:10:54;;;;;;;3.77;3.43;;;21.50;57.40;;;;;;4869644;29;20467;-93
2022/06/08 01:13:28;;;;;;;6.37;3.37;;;21.50;57.30;;;;;;4872400;29;20527;-94
2022/06/08 01:15:55;;;;;;;4.17;3.77;;;21.40;57.20;;;;;;4871532;29;20449;-94
2022/06/08 01:18:23;;;;;;;3.80;3.23;;;21.40;57.10;;;;;;4862031;29;20455;-93
2022/06/08 01:20:55;;;;;;;4.77;3.70;;;21.40;57.20;;;;;;4862400;29;20451;-93
2022/06/08 01:23:28;;;;;;;3.70;3.40;;;21.40;57.10;;;;;;4862607;29;20817;-93
2022/06/08 01:26:08;;;;;;;4.10;3.70;;;21.40;57.10;;;;;;4870458;29;20536;-94
2022/06/08 01:28:44;;;;;;;4.93;4.00;;;21.30;57.30;;;;;;4891389;29;20479;-93
2022/06/08 01:31:21;;;;;;;4.70;3.50;;;21.30;57.70;;;;;;4859039;29;21018;-95
2022/06/08 01:33:58;;;;;;;4.03;3.63;;;21.20;58.00;;;;;;4882710;29;20475;-94
2022/06/08 01:36:47;;;;;;;5.03;4.30;;;21.20;57.70;;;;;;4873708;29;20552;-93
2022/06/08 01:39:26;;;;;;;4.10;3.70;;;21.20;57.50;;;;;;4862546;29;20488;-93
2022/06/08 01:42:26;;;;;;;5.10;4.70;;;21.10;57.40;;;;;;4899630;29;20516;-95
2022/06/08 01:45:30;;;;;;;4.93;4.07;;;21.20;57.10;;;;;;4870745;29;20485;-94
2022/06/08 01:48:30;;;;;;;5.93;3.90;;;21.10;56.90;;;;;;4862393;29;20457;-93
2022/06/08 01:51:05;;;;;;;4.30;3.70;;;21.10;56.90;;;;;;4858327;29;20543;-93
2022/06/08 01:53:46;;;;;;;4.00;3.70;;;21.00;56.80;;;;;;4876329;29;20834;-94
2022/06/08 01:56:22;;;;;;;3.73;3.33;;;21.00;56.70;;;;;;4877489;29;20448;-93
2022/06/08 01:59:01;;;;;;;10.43;3.67;;;20.90;56.10;;;;;;4888244;29;20466;-94
2022/06/08 02:01:37;;;;;;;4.80;3.60;;;20.90;56.30;;;;;;4851733;29;20570;-94
2022/06/08 02:04:12;;;;;;;4.40;4.00;;;20.80;56.70;;;;;;4880545;29;20479;-94
2022/06/08 02:06:48;;;;;;;3.53;3.20;;;20.80;56.50;;;;;;4888716;29;20494;-93
2022/06/08 02:09:22;;;;;;;5.67;4.10;;;20.80;56.70;;;;;;4863784;29;20839;-93
2022/06/08 02:11:57;;;;;;;6.87;4.20;;;20.80;56.80;;;;;;4881876;29;20539;-94
2022/06/08 02:14:36;;;;;;;5.63;4.43;;;20.70;56.90;;;;;;4871181;29;20839;-94
2022/06/08 02:17:08;;;;;;;11.87;5.23;;;20.70;57.60;;;;;;4900916;29;20507;-94
2022/06/08 02:19:41;;;;;;;5.33;4.57;;;20.70;58.20;;;;;;4878299;29;20452;-93
2022/06/08 02:22:17;;;;;;;7.10;5.10;;;20.70;58.30;;;;;;4863750;29;20487;-93
2022/06/08 02:24:50;;;;;;;5.50;4.60;;;20.80;58.40;;;;;;4881238;29;20459;-94
2022/06/08 02:27:23;;;;;;;7.97;5.30;;;20.70;58.50;;;;;;4884953;29;20456;-93
2022/06/08 02:29:55;;;;;;;9.73;5.30;;;20.60;58.90;;;;;;4884332;29;20468;-93
2022/06/08 02:35:19;;;;;;;14.80;5.47;;;20.60;59.10;;;;;;4882279;29;20540;-95
2022/06/08 02:40:46;;;;;;;10.17;5.60;;;20.60;59.60;;;;;;4861010;29;20514;-92
2022/06/08 02:43:20;;;;;;;28.10;6.20;;;20.20;60.50;;;;;;4875244;29;20854;-93
2022/06/08 02:45:55;;;;;;;27.53;7.33;;;20.10;60.70;;;;;;4889380;29;20995;-93
2022/06/08 02:48:22;;;;;;;32.40;10.30;;;19.90;61.60;;;;;;4888992;29;20969;-93
2022/06/08 02:50:52;;;;;;;26.53;6.97;;;19.80;62.10;;;;;;4882975;29;20487;-93
2022/06/08 02:53:58;;;;;;;47.37;9.30;;;19.90;62.10;;;;;;4863021;29;20856;-93
2022/06/08 02:57:00;;;;;;;64.40;6.07;;;20.00;61.80;;;;;;4870788;29;20460;-94
2022/06/08 02:59:37;;;;;;;77.37;7.03;;;19.50;61.80;;;;;;4850040;29;20468;-94
2022/06/08 03:02:17;;;;;;;77.90;7.97;;;19.20;63.20;;;;;;4898123;29;20472;-93
2022/06/08 03:04:51;;;;;;;17.97;5.97;;;19.00;64.80;;;;;;4901044;29;20486;-93
2022/06/08 03:07:24;;;;;;;17.03;5.20;;;19.30;64.90;;;;;;4880816;29;21711;-90
2022/06/08 03:09:53;;;;;;;10.70;4.70;;;19.60;63.90;;;;;;4895508;29;20466;-94
2022/06/08 03:12:27;;;;;;;13.60;5.20;;;19.80;62.90;;;;;;4876792;29;20467;-93
2022/06/08 03:14:56;;;;;;;29.67;5.70;;;20.00;61.90;;;;;;4885652;29;20495;-93
2022/06/08 03:17:31;;;;;;;32.90;6.40;;;20.10;61.40;;;;;;4872883;29;20961;-93
2022/06/08 03:19:59;;;;;;;17.13;5.27;;;20.10;61.20;;;;;;4855669;29;20460;-93
2022/06/08 03:22:26;;;;;;;12.50;4.73;;;20.10;61.10;;;;;;4890500;29;20495;-93
2022/06/08 03:24:53;;;;;;;20.50;5.90;;;20.20;60.80;;;;;;4873203;29;20480;-94
2022/06/08 03:27:21;;;;;;;4.80;4.30;;;20.10;60.70;;;;;;4870725;29;20456;-93
2022/06/08 03:29:53;;;;;;;6.13;4.20;;;20.00;61.00;;;;;;4861975;29;20449;-93
2022/06/08 03:32:22;;;;;;;17.83;4.60;;;20.10;61.20;;;;;;4876737;29;20471;-93
2022/06/08 03:34:51;;;;;;;106.47;7.60;;;20.20;60.50;;;;;;4868790;29;20456;-93
2022/06/08 03:37:22;;;;;;;32.30;6.40;;;20.10;60.10;;;;;;4892301;29;20515;-93
2022/06/08 03:39:54;;;;;;;37.60;5.70;;;19.90;60.70;;;;;;4871557;29;20452;-93
2022/06/08 03:42:22;;;;;;;4.67;3.70;;;20.00;60.70;;;;;;4874378;29;20515;-93
2022/06/08 03:44:49;;;;;;;6.07;4.10;;;20.10;60.50;;;;;;4875230;29;20465;-94
2022/06/08 03:47:20;;;;;;;18.10;5.10;;;20.10;60.40;;;;;;4874750;29;20480;-93
2022/06/08 03:49:50;;;;;;;10.03;4.30;;;20.20;60.20;;;;;;4891145;29;20456;-93
2022/06/08 03:52:22;;;;;;;16.33;4.87;;;20.20;60.20;;;;;;4893292;29;20479;-93
2022/06/08 03:54:55;;;;;;;18.77;6.17;;;20.20;60.10;;;;;;4862352;29;20986;-93
2022/06/08 03:57:23;;;;;;;59.30;5.43;;;20.20;60.50;;;;;;4870708;29;20452;-91
2022/06/08 03:59:51;;;;;;;74.33;6.23;;;20.00;60.00;;;;;;4901959;29;20512;-93
2022/06/08 04:02:19;;;;;;;76.90;6.97;;;19.30;61.70;;;;;;4878672;29;22008;-93
2022/06/08 04:04:50;;;;;;;58.80;5.80;;;19.10;63.00;;;;;;4857344;29;20457;-93
2022/06/08 04:07:18;;;;;;;88.93;7.40;;;18.90;64.00;;;;;;4881658;29;20476;-93
2022/06/08 04:09:48;;;;;;;9.80;4.63;;;18.80;65.20;;;;;;4875969;29;20827;-93
2022/06/08 04:12:16;;;;;;;5.37;4.07;;;19.10;64.80;;;;;;4904468;29;20611;-93
2022/06/08 04:14:48;;;;;;;7.57;4.03;;;19.50;64.00;;;;;;4886379;29;20459;-93
2022/06/08 04:17:15;;;;;;;6.00;4.90;;;19.80;63.00;;;;;;4857042;29;20461;-93
2022/06/08 04:19:44;;;;;;;6.70;4.10;;;20.10;61.70;;;;;;4905667;29;20482;-93
2022/06/08 04:22:20;;;;;;;4.20;3.80;;;20.20;60.80;;;;;;4867442;29;20486;-91
2022/06/08 04:24:48;;;;;;;5.63;3.93;;;20.30;60.50;;;;;;4872653;29;20459;-90
2022/06/08 04:27:16;;;;;;;4.13;3.60;;;20.20;60.00;;;;;;4879638;29;20488;-92
2022/06/08 04:29:48;;;;;;;6.57;4.50;;;20.30;59.90;;;;;;4874910;29;20476;-93
2022/06/08 04:32:15;;;;;;;7.00;3.77;;;20.40;59.90;;;;;;4879220;29;20480;-91
2022/06/08 04:34:46;;;;;;;3.50;3.13;;;20.40;59.70;;;;;;4870478;29;20448;-92
2022/06/08 04:37:14;;;;;;;4.30;3.60;;;20.60;59.70;;;;;;4887904;29;20481;-92
2022/06/08 04:39:53;;;;;;;4.00;3.50;;;20.60;59.50;;;;;;4878200;29;20514;-91
2022/06/08 04:42:22;;;;;;;4.33;3.93;;;20.60;59.30;;;;;;4867846;29;20506;-91
2022/06/08 04:44:51;;;;;;;4.73;3.90;;;20.60;59.40;;;;;;4880341;29;20461;-91
2022/06/08 04:47:21;;;;;;;4.50;4.10;;;20.50;59.50;;;;;;4880645;29;20807;-89
2022/06/08 04:49:51;;;;;;;4.87;4.20;;;20.50;59.80;;;;;;4870726;29;20936;-92
2022/06/08 04:52:19;;;;;;;6.20;4.27;;;20.50;59.80;;;;;;4866962;29;21011;-91
2022/06/08 04:54:46;;;;;;;12.30;4.73;;;20.50;59.90;;;;;;4853370;29;20466;-91
2022/06/08 04:57:16;;;;;;;4.77;4.37;;;20.50;60.40;;;;;;4868186;29;20461;-91
2022/06/08 04:59:46;;;;;;;12.30;4.37;;;20.50;60.50;;;;;;4846087;29;20457;-91
2022/06/08 05:05:04;;;;;;;4.80;4.30;;;20.70;60.90;;;;;;4852482;29;20452;-91
2022/06/08 05:07:31;;;;;;;8.27;5.13;;;20.60;60.50;;;;;;4854784;29;21425;-92
2022/06/08 05:10:00;;;;;;;9.73;4.97;;;20.60;60.60;;;;;;4879592;29;20449;-90
2022/06/08 05:13:05;;;;;;;7.00;4.20;;;20.80;60.70;;;;;;4887004;29;20491;-92
2022/06/08 05:15:36;;;;;;;5.00;4.40;;;20.90;60.10;;;;;;4868911;29;20472;-92
2022/06/08 05:18:30;;;;;;;4.67;4.20;;;20.70;60.60;;;;;;4884894;29;20460;-92
2022/06/08 05:21:00;;;;;;;5.53;5.00;;;20.70;60.90;;;;;;4870088;29;20468;-91
2022/06/08 05:23:34;;;;;;;8.17;5.20;;;20.80;60.80;;;;;;4874324;29;20491;-92
2022/06/08 05:26:05;;;;;;;4.63;4.23;;;20.60;60.60;;;;;;4890878;29;20529;-89
2022/06/08 05:28:33;;;;;;;4.97;4.50;;;20.70;60.60;;;;;;4852220;29;21011;-92
2022/06/08 05:31:02;;;;;;;5.00;4.60;;;20.70;60.80;;;;;;4881941;29;20480;-92
2022/06/08 05:33:34;;;;;;;5.07;4.57;;;20.60;61.30;;;;;;4851242;29;20481;-90
2022/06/08 05:36:09;;;;;;;5.53;4.40;;;20.60;61.20;;;;;;4879834;29;20452;-91
2022/06/08 05:38:38;;;;;;;6.30;4.20;;;20.80;60.80;;;;;;4884460;29;20456;-90
2022/06/08 05:41:06;;;;;;;5.03;4.57;;;20.70;60.80;;;;;;4872599;29;20456;-92
2022/06/08 05:43:38;;;;;;;3.87;3.57;;;20.80;61.50;;;;;;4870385;29;20477;-91
2022/06/08 05:46:05;;;;;;;6.83;5.10;;;21.00;61.20;;;;;;4861255;29;20477;-92
2022/06/08 05:48:33;;;;;;;6.30;5.03;;;21.00;61.00;;;;;;4870984;29;20464;-92
2022/06/08 05:51:04;;;;;;;6.13;4.73;;;21.10;61.10;;;;;;4880517;29;20463;-92
2022/06/08 05:53:33;;;;;;;5.43;4.93;;;21.20;61.30;;;;;;4851339;29;20485;-93
2022/06/08 05:56:00;;;;;;;5.77;5.20;;;21.40;61.40;;;;;;4897286;29;20495;-92
2022/06/08 05:58:30;;;;;;;5.90;4.73;;;21.50;60.90;;;;;;4872011;29;20466;-92
2022/06/08 06:01:01;;;;;;;5.97;4.80;;;21.60;60.30;;;;;;4870057;29;20452;-90
2022/06/08 06:03:28;;;;;;;4.53;4.13;;;21.70;60.00;;;;;;4862418;29;20476;-93
2022/06/08 06:05:56;;;;;;;5.57;4.73;;;21.80;59.70;;;;;;4890407;29;20492;-93
2022/06/08 06:08:25;;;;;;;5.10;4.40;;;21.80;59.80;;;;;;4872947;29;20546;-93
2022/06/08 06:10:58;;;;;;;8.00;4.97;;;21.70;59.90;;;;;;4887846;29;20458;-93
2022/06/08 06:13:45;;;;;;;6.70;4.70;;;21.70;59.40;;;;;;4872636;29;21260;-94
2022/06/08 06:16:17;;;;;;;8.00;4.63;;;21.70;59.30;;;;;;4855869;29;21377;-92
2022/06/08 06:18:45;;;;;;;7.33;5.10;;;21.30;59.40;;;;;;4886286;29;20455;-92
2022/06/08 06:21:39;;;;;;;6.87;4.80;;;21.50;59.90;;;;;;4869824;29;20441;-91
2022/06/08 06:24:38;;;;;;;4.90;4.50;;;21.70;60.00;;;;;;4866845;29;20902;-92
2022/06/08 06:27:06;;;;;;;4.83;3.67;;;21.90;59.70;;;;;;4872256;29;20480;-91
2022/06/08 06:29:52;;;;;;;5.90;4.70;;;22.00;59.50;;;;;;4869252;29;20452;-93
2022/06/08 06:32:30;;;;;;;5.00;4.50;;;22.10;59.40;;;;;;4863565;29;20556;-92
2022/06/08 06:34:59;;;;;;;4.57;4.10;;;22.20;59.20;;;;;;4882454;29;20538;-93
2022/06/08 06:37:28;;;;;;;5.60;4.00;;;22.10;59.40;;;;;;4865538;29;20535;-93
2022/06/08 06:39:55;;;;;;;7.53;4.73;;;22.00;59.70;;;;;;4860907;29;20459;-94
2022/06/08 06:42:27;;;;;;;4.93;4.30;;;21.80;60.00;;;;;;4873716;29;20479;-91
2022/06/08 06:45:15;;;;;;;5.00;4.57;;;21.90;60.30;;;;;;4864883;29;20977;-91
2022/06/08 06:47:49;;;;;;;7.70;4.60;;;22.00;59.90;;;;;;4888266;29;20983;-91
2022/06/08 06:50:25;;;;;;;4.60;4.00;;;22.00;59.80;;;;;;4872101;29;20567;-92
2022/06/08 06:52:54;;;;;;;5.40;4.40;;;22.00;59.90;;;;;;4875226;29;20557;-90
2022/06/08 06:55:26;;;;;;;4.90;4.50;;;22.00;60.50;;;;;;4856486;29;20779;-91
2022/06/08 06:57:56;;;;;;;7.50;4.10;;;22.20;60.50;;;;;;4861384;29;20449;-90
2022/06/08 07:00:28;;;;;;;4.80;3.63;;;22.30;59.70;;;;;;4869154;29;21186;-90
2022/06/08 07:02:59;;;;;;;5.40;3.87;;;22.40;60.50;;;;;;4856767;29;20959;-92
2022/06/08 07:05:31;;;;;;;4.30;3.97;;;22.40;59.50;;;;;;4863567;29;20460;-92
2022/06/08 07:07:58;;;;;;;3.80;3.13;;;22.80;59.10;;;;;;4867675;29;20996;-90
2022/06/08 07:10:26;;;;;;;6.00;2.23;;;23.00;58.50;;;;;;4890158;29;20963;-89
2022/06/08 07:12:53;;;;;;;4.77;2.27;;;23.00;56.90;;;;;;4860165;29;20472;-89
2022/06/08 07:15:23;;;;;;;3.33;2.37;;;23.20;57.50;;;;;;4857242;29;20996;-90
2022/06/08 07:17:51;;;;;;;2.40;2.20;;;23.30;56.20;;;;;;4865101;29;20790;-91
2022/06/08 07:20:20;;;;;;;2.30;2.10;;;23.20;55.00;;;;;;4872156;29;21335;-90
2022/06/08 07:22:49;;;;;;;2.43;2.10;;;23.30;56.00;;;;;;4894630;29;20971;-90
2022/06/08 07:25:17;;;;;;;3.23;2.30;;;23.30;55.60;;;;;;4842849;29;21113;-90
2022/06/08 07:27:45;;;;;;;8.07;2.60;;;23.30;56.00;;;;;;4875585;29;20558;-91
2022/06/08 07:30:14;;;;;;;3.03;2.73;;;23.40;56.10;;;;;;4890409;29;20587;-89
2022/06/08 07:32:41;;;;;;;2.30;2.10;;;23.30;55.70;;;;;;4874532;29;20488;-89
2022/06/08 07:35:09;;;;;;;3.37;2.43;;;23.30;56.00;;;;;;4890540;29;20487;-89
2022/06/08 07:37:37;;;;;;;3.60;2.03;;;23.30;55.80;;;;;;4890861;29;20445;-89
2022/06/08 07:40:06;;;;;;;3.73;2.20;;;23.40;54.70;;;;;;4871357;29;20449;-88
2022/06/08 07:42:36;;;;;;;2.63;2.40;;;23.60;55.00;;;;;;4874507;29;20479;-90
2022/06/08 07:45:06;;;;;;;2.83;2.43;;;23.80;53.90;;;;;;4866050;29;20460;-88
2022/06/08 07:47:33;;;;;;;2.27;1.93;;;24.00;54.30;;;;;;4892802;29;20484;-89
2022/06/08 07:49:59;;;;;;;5.23;2.20;;;24.10;52.30;;;;;;4850707;29;20449;-88
2022/06/08 07:52:26;;;;;;;2.00;1.80;;;24.30;52.10;;;;;;4891108;29;20490;-89
2022/06/08 07:54:54;;;;;;;5.70;1.90;;;24.20;52.10;;;;;;4867783;29;20444;-89
2022/06/08 07:57:25;;;;;;;2.10;1.63;;;24.40;52.60;;;;;;4863188;29;20968;-90
2022/06/08 07:59:53;;;;;;;2.13;1.60;;;24.60;52.40;;;;;;4869036;29;20452;-89
2022/06/08 08:02:20;;;;;;;2.97;1.80;;;24.80;51.40;;;;;;4890586;29;20515;-86
2022/06/08 08:04:47;;;;;;;4.00;1.60;;;24.80;51.10;;;;;;4890789;29;21178;-90
2022/06/08 08:07:16;;;;;;;2.10;1.60;;;25.00;51.80;;;;;;4857476;29;20476;-90
2022/06/08 08:09:44;;;;;;;2.67;1.80;;;24.90;48.80;;;;;;4874338;29;20456;-88
2022/06/08 08:12:12;;;;;;;3.73;2.07;;;24.80;52.20;;;;;;4890387;29;20486;-89
2022/06/08 08:14:44;;;;;;;2.90;1.73;;;25.10;51.40;;;;;;4875197;29;20959;-90
2022/06/08 08:17:11;;;;;;;3.40;1.80;;;25.40;50.10;;;;;;4890134;29;20487;-90
2022/06/08 08:19:39;;;;;;;1.40;1.30;;;25.30;49.50;;;;;;4881482;29;20464;-89
2022/06/08 08:22:10;;;;;;;2.03;1.60;;;25.50;49.40;;;;;;4881846;29;20449;-90
2022/06/08 08:24:37;;;;;;;2.83;1.80;;;25.80;50.50;;;;;;4856410;29;20464;-90
2022/06/08 08:27:05;;;;;;;2.53;1.50;;;25.90;49.80;;;;;;4851392;29;20514;-89
2022/06/08 08:29:33;;;;;;;2.80;1.53;;;25.70;47.50;;;;;;4875587;29;20463;-89
2022/06/08 08:32:01;;;;;;;3.63;1.70;;;25.60;48.60;;;;;;4874240;29;20457;-89
2022/06/08 08:34:29;;;;;;;1.57;1.47;;;25.60;48.60;;;;;;4860932;29;20471;-89
2022/06/08 08:36:56;;;;;;;5.43;1.50;;;25.70;47.90;;;;;;4877997;29;20505;-90
2022/06/08 08:39:23;;;;;;;1.53;1.43;;;25.90;47.60;;;;;;4880790;29;20862;-89
2022/06/08 08:44:40;;;;;;;1.70;1.60;;;26.30;47.40;;;;;;4877505;29;20460;-89
2022/06/08 08:47:24;;;;;;;3.43;1.77;;;26.60;47.00;;;;;;4861237;29;20488;-90
2022/06/08 08:49:55;;;;;;;2.70;1.50;;;26.80;46.30;;;;;;4874262;29;20514;-90
2022/06/08 08:52:32;;;;;;;2.23;1.40;;;26.60;45.40;;;;;;4869108;29;21269;-90
2022/06/08 08:55:04;;;;;;;2.47;1.50;;;26.50;46.10;;;;;;4859216;29;20456;-88
2022/06/08 08:57:38;;;;;;;1.57;1.27;;;26.40;46.50;;;;;;4878580;29;20589;-91
2022/06/08 09:00:18;;;;;;;4.10;1.60;;;26.20;45.50;;;;;;4877071;29;20448;-90
2022/06/08 09:05:32;;;;;;;1.93;1.47;;;25.90;47.20;;;;;;4867921;29;20448;-90
2022/06/08 09:07:59;;;;;;;2.83;1.30;;;25.90;48.10;;;;;;4868178;29;20487;-87
2022/06/08 09:10:27;;;;;;;1.67;1.50;;;25.40;46.10;;;;;;4883947;29;20513;-90
2022/06/08 09:12:56;;;;;;;2.80;1.57;;;25.30;47.00;;;;;;4879294;29;20487;-89
2022/06/08 09:15:43;;;;;;;3.93;1.63;;;25.30;48.30;;;;;;4876557;29;20452;-89
2022/06/08 09:18:19;;;;;;;2.30;1.47;;;25.30;47.70;;;;;;4862167;29;20699;-90
2022/06/08 09:20:47;;;;;;;3.50;1.60;;;25.30;48.50;;;;;;4876695;29;20456;-89
2022/06/08 09:23:24;;;;;;;2.60;1.63;;;25.20;48.60;;;;;;4867234;29;20473;-90
2022/06/08 09:26:03;;;;;;;3.53;1.60;;;25.10;48.80;;;;;;4851941;29;20463;-90
2022/06/08 09:28:33;;;;;;;3.57;1.70;;;25.20;49.70;;;;;;4877056;29;20479;-88
2022/06/08 09:31:02;;;;;;;2.77;1.53;;;25.20;49.90;;;;;;4855612;29;20461;-88
2022/06/08 09:33:34;;;;;;;2.57;1.90;;;25.00;49.30;;;;;;4857007;29;20461;-90
2022/06/08 09:36:05;;;;;;;2.43;2.20;;;25.00;49.50;;;;;;4863681;29;20539;-88
2022/06/08 09:38:36;;;;;;;4.17;2.20;;;24.90;50.00;;;;;;4871000;29;20448;-89
2022/06/08 09:41:14;;;;;;;2.40;1.97;;;25.10;50.10;;;;;;4876816;29;20540;-88
2022/06/08 09:44:14;;;;;;;5.77;2.10;;;25.10;50.10;;;;;;4894305;29;20859;-88
2022/06/08 09:53:07;;;;;;;3.13;1.87;;;24.90;48.90;;;;;;4846863;29;20500;-89
2022/06/08 09:55:44;;;;;;;2.30;1.20;;;24.90;46.10;;;;;;4860252;29;20448;-88
2022/06/08 09:58:27;;;;;;;4.67;1.40;;;25.10;47.90;;;;;;4891559;29;20544;-89
2022/06/08 10:01:00;;;;;;;1.70;1.50;;;25.10;47.40;;;;;;4869469;29;20480;-86
2022/06/08 10:04:00;;;;;;;1.33;1.17;;;25.20;47.30;;;;;;4881662;29;20503;-88
2022/06/08 10:06:36;;;;;;;2.17;1.60;;;25.30;46.40;;;;;;4890997;29;20459;-89
2022/06/08 10:09:15;;;;;;;1.60;1.40;;;25.20;46.60;;;;;;4876224;29;20512;-88
2022/06/08 10:11:48;;;;;;;1.53;1.43;;;25.40;46.40;;;;;;4878334;29;20948;-89
2022/06/08 10:14:23;;;;;;;1.63;1.20;;;25.30;46.20;;;;;;4877813;29;20851;-88
2022/06/08 10:16:55;;;;;;;4.13;1.53;;;25.40;45.90;;;;;;4893428;29;20447;-88
2022/06/08 10:19:30;;;;;;;2.07;1.30;;;25.80;46.90;;;;;;4892293;29;20453;-88
2022/06/08 10:22:00;;;;;;;3.70;1.60;;;26.00;44.30;;;;;;4883874;29;20764;-88
2022/06/08 10:24:30;;;;;;;3.57;1.47;;;26.30;43.30;;;;;;4877691;29;20481;-89
2022/06/08 10:27:03;;;;;;;1.50;1.40;;;26.30;44.30;;;;;;4845079;29;20447;-88
2022/06/08 10:29:35;;;;;;;2.23;1.17;;;26.40;42.90;;;;;;4890276;29;20483;-89
2022/06/08 10:32:10;;;;;;;1.53;1.10;;;26.20;43.30;;;;;;4892344;29;20472;-88
2022/06/08 10:34:39;;;;;;;2.30;1.30;;;26.50;43.00;;;;;;4873421;29;20471;-89
2022/06/08 10:37:12;;;;;;;2.13;1.00;;;26.60;42.20;;;;;;4873840;29;20444;-89
2022/06/08 10:39:40;;;;;;;3.00;1.50;;;26.90;41.80;;;;;;4876644;29;21198;-88
2022/06/08 10:45:37;;;;;;;2.43;1.13;;;26.80;41.30;;;;;;4893258;29;20456;-89
2022/06/08 10:48:49;;;;;;;2.57;1.20;;;27.20;41.20;;;;;;4853059;29;20486;-88
2022/06/08 10:51:29;;;;;;;1.43;1.10;;;27.60;39.90;;;;;;4861352;29;21276;-87
2022/06/08 10:56:51;;;;;;;3.43;1.07;;;27.50;39.40;;;;;;4892420;29;21085;-88
2022/06/08 10:59:21;;;;;;;1.40;1.07;;;27.40;39.20;;;;;;4891041;29;20464;-87
2022/06/08 11:01:56;;;;;;;1.40;1.30;;;27.40;40.30;;;;;;4873808;29;20467;-88
2022/06/08 11:04:43;;;;;;;1.30;1.20;;;27.60;39.50;;;;;;4888383;29;20540;-88
2022/06/08 11:07:13;;;;;;;4.33;1.20;;;27.60;38.60;;;;;;4891342;29;20464;-86
2022/06/08 11:09:55;;;;;;;2.00;1.10;;;27.60;38.10;;;;;;4860101;29;20453;-86
2022/06/08 11:12:50;;;;;;;3.83;1.30;;;27.50;38.50;;;;;;4890943;29;20573;-86
2022/06/08 11:15:41;;;;;;;1.97;1.37;;;27.40;37.90;;;;;;4889210;29;20936;-89
2022/06/08 11:18:17;;;;;;;2.77;1.27;;;27.20;37.40;;;;;;4871654;29;20528;-88
2022/06/08 11:20:50;;;;;;;1.20;1.10;;;26.70;38.60;;;;;;4874552;29;20452;-87
2022/06/08 11:23:24;;;;;;;1.77;1.30;;;26.80;39.60;;;;;;4892180;29;20483;-88
2022/06/08 11:25:59;;;;;;;1.47;1.37;;;26.70;39.20;;;;;;4891451;29;20905;-88
2022/06/08 11:28:39;;;;;;;1.80;1.20;;;27.00;37.90;;;;;;4890672;29;20470;-89
2022/06/08 11:31:11;;;;;;;1.97;0.97;;;27.00;39.30;;;;;;4891752;29;20457;-88
2022/06/08 11:34:07;;;;;;;4.20;1.30;;;27.30;39.30;;;;;;4875132;29;20697;-86
2022/06/08 11:37:04;;;;;;;2.00;1.50;;;28.00;37.20;;;;;;4891204;29;20543;-87
2022/06/08 11:39:41;;;;;;;1.53;1.43;;;28.40;35.60;;;;;;4890324;29;20457;-88
2022/06/08 11:42:22;;;;;;;1.97;1.30;;;28.70;34.80;;;;;;4874281;29;20447;-87
2022/06/08 11:44:53;;;;;;;4.00;0.90;;;29.10;30.20;;;;;;4887986;29;20587;-87
2022/06/08 11:47:26;;;;;;;1.07;0.93;;;29.10;32.10;;;;;;4876965;29;20979;-85
2022/06/08 11:50:00;;;;;;;1.00;0.90;;;28.10;31.80;;;;;;4851246;29;20464;-88
2022/06/08 11:52:32;;;;;;;1.10;1.00;;;27.80;33.90;;;;;;4888937;29;20477;-87
2022/06/08 11:55:08;;;;;;;1.50;1.23;;;27.70;35.20;;;;;;4887765;29;21272;-86
2022/06/08 11:57:36;;;;;;;3.27;1.20;;;27.40;34.20;;;;;;4851223;29;20444;-87
2022/06/08 12:00:14;;;;;;;1.20;1.10;;;26.90;36.30;;;;;;4890717;29;20570;-87
2022/06/08 12:02:42;;;;;;;1.67;1.03;;;26.90;37.20;;;;;;4889849;29;20467;-87
2022/06/08 12:05:10;;;;;;;1.93;1.10;;;27.10;35.40;;;;;;4872961;29;20457;-86
2022/06/08 12:07:48;;;;;;;1.10;1.00;;;27.30;34.30;;;;;;4889585;29;20881;-87
2022/06/08 12:10:20;;;;;;;1.57;1.23;;;27.40;34.90;;;;;;4888155;29;20537;-87
2022/06/08 12:12:48;;;;;;;4.77;1.33;;;27.50;36.30;;;;;;4891686;29;20564;-88
2022/06/08 12:15:27;;;;;;;2.40;1.50;;;27.60;36.30;;;;;;4872329;29;20467;-88
2022/06/08 12:17:54;;;;;;;1.67;1.20;;;27.50;35.90;;;;;;4876366;29;20453;-89
2022/06/08 12:20:34;;;;;;;1.40;1.10;;;27.60;37.00;;;;;;4877775;29;20468;-87
2022/06/08 12:23:02;;;;;;;1.60;1.30;;;27.60;35.50;;;;;;4873507;29;20472;-88
2022/06/08 12:25:32;;;;;;;1.17;1.07;;;27.70;36.20;;;;;;4888926;29;20460;-87
2022/06/08 12:28:01;;;;;;;4.00;1.47;;;27.90;35.90;;;;;;4889929;29;20453;-88
2022/06/08 12:30:30;;;;;;;1.40;1.30;;;27.90;34.90;;;;;;4887704;29;20551;-88
2022/06/08 12:33:00;;;;;;;1.77;1.20;;;28.20;36.90;;;;;;4891400;29;20475;-86
2022/06/08 12:35:33;;;;;;;1.43;1.10;;;28.20;36.00;;;;;;4873717;29;20448;-87
2022/06/08 12:38:20;;;;;;;1.53;1.20;;;28.60;36.50;;;;;;4880926;29;20458;-87
2022/06/08 12:41:05;;;;;;;1.80;1.30;;;28.70;34.50;;;;;;4887930;29;21096;-88
2022/06/08 12:43:38;;;;;;;4.17;1.30;;;28.40;36.00;;;;;;4890136;29;20487;-90
2022/06/08 12:46:25;;;;;;;1.63;1.53;;;28.40;36.70;;;;;;4887534;29;20460;-88
2022/06/08 12:48:59;;;;;;;1.87;1.23;;;28.20;36.30;;;;;;4875055;29;20487;-88
2022/06/08 12:51:43;;;;;;;1.53;1.10;;;28.00;34.70;;;;;;4872502;29;20462;-88
2022/06/08 12:54:37;;;;;;;1.67;1.17;;;28.10;34.30;;;;;;4865764;29;21136;-88
2022/06/08 12:57:14;;;;;;;3.00;1.20;;;28.00;34.20;;;;;;4884850;29;20576;-88
2022/06/08 12:59:41;;;;;;;4.40;1.07;;;28.10;33.60;;;;;;4842286;29;20451;-88
2022/06/08 13:02:13;;;;;;;1.03;0.90;;;28.40;33.30;;;;;;4889022;29;20531;-88
2022/06/08 13:04:40;;;;;;;2.57;1.20;;;28.80;34.10;;;;;;4875306;29;20460;-87
2022/06/08 13:07:10;;;;;;;1.73;1.20;;;28.70;32.90;;;;;;4885311;29;21202;-88
2022/06/08 13:09:37;;;;;;;1.73;1.27;;;28.90;32.70;;;;;;4885129;29;20479;-87
2022/06/08 13:12:04;;;;;;;2.50;1.20;;;29.20;32.80;;;;;;4873126;29;20455;-88
2022/06/08 13:14:58;;;;;;;5.53;1.10;;;29.30;32.60;;;;;;4857023;29;20488;-88
2022/06/08 13:17:25;;;;;;;2.23;1.30;;;29.70;32.30;;;;;;4887362;29;21102;-88
2022/06/08 13:19:53;;;;;;;3.67;1.47;;;29.70;29.80;;;;;;4869635;29;20461;-88
2022/06/08 13:22:24;;;;;;;3.00;1.17;;;29.70;31.20;;;;;;4886350;29;20484;-85
2022/06/08 13:24:52;;;;;;;4.00;1.00;;;29.50;30.10;;;;;;4878928;29;20809;-88
2022/06/08 13:27:19;;;;;;;1.30;1.10;;;29.30;29.70;;;;;;4889000;29;20981;-87
2022/06/08 13:29:46;;;;;;;2.50;1.30;;;29.20;30.50;;;;;;4871016;29;20488;-88
2022/06/08 13:32:18;;;;;;;1.70;1.20;;;29.10;30.00;;;;;;4887909;29;21171;-88
2022/06/08 13:34:45;;;;;;;1.53;1.30;;;29.10;31.50;;;;;;4878002;29;20459;-87
2022/06/08 13:37:22;;;;;;;2.07;1.20;;;29.10;31.40;;;;;;4886315;29;20459;-88
2022/06/08 13:39:50;;;;;;;1.37;1.10;;;28.90;31.90;;;;;;4885210;29;20520;-87
2022/06/08 13:42:19;;;;;;;5.00;1.53;;;28.80;31.70;;;;;;4870940;29;20606;-88